Time;durP1;ratioP1;P1;durP2;ratioP2;P2;SDS_P1;SDS_P2;PMS_P1;PMS_P2;Temp;Humidity;BMP_temperature;BMP_pressure;BME280_temperature;BME280_humidity;BME280_pressure;Samples;Min_cycle;Max_cycle;Signal;HPM_P1;HPM_P2
2022/01/22 00:01:26;;;;;;;14.10;7.18;;;3.60;99.90;;;;;;5089331;28;20743;-61
2022/01/22 00:03:52;;;;;;;12.43;6.50;;;3.60;99.90;;;;;;5088620;28;20393;-61
2022/01/22 00:06:17;;;;;;;12.03;6.60;;;3.50;99.90;;;;;;5090014;28;20504;-61
2022/01/22 00:08:43;;;;;;;14.27;6.25;;;3.60;99.90;;;;;;5092842;28;20413;-61
2022/01/22 00:11:08;;;;;;;12.33;6.03;;;3.50;99.90;;;;;;5093581;28;20373;-61
2022/01/22 00:16:19;;;;;;;13.90;6.90;;;3.50;99.90;;;;;;5093201;28;20454;-60
2022/01/22 00:18:45;;;;;;;14.43;6.50;;;4.40;99.90;;;;;;5092407;28;20847;-61
2022/01/22 00:21:10;;;;;;;12.30;6.50;;;3.50;99.90;;;;;;5093611;28;20966;-61
2022/01/22 00:23:39;;;;;;;16.75;7.18;;;5.10;99.90;;;;;;5093033;28;20409;-61
2022/01/22 00:26:04;;;;;;;19.80;7.40;;;3.50;99.90;;;;;;5091442;28;20406;-61
2022/01/22 00:28:30;;;;;;;14.50;7.47;;;3.50;99.90;;;;;;5093362;28;20389;-60
2022/01/22 00:30:56;;;;;;;15.73;7.77;;;3.60;99.90;;;;;;5091965;28;20562;-61
2022/01/22 00:33:21;;;;;;;17.10;7.80;;;4.00;99.90;;;;;;5093341;28;20469;-60
2022/01/22 00:35:47;;;;;;;17.10;7.80;;;3.60;99.90;;;;;;5092274;28;20515;-60
2022/01/22 00:38:14;;;;;;;19.70;8.50;;;3.50;99.90;;;;;;5093059;28;20720;-60
2022/01/22 00:40:41;;;;;;;18.93;8.20;;;3.50;99.90;;;;;;5092378;28;20374;-61
2022/01/22 00:43:06;;;;;;;16.75;8.32;;;3.50;99.90;;;;;;5092746;28;20869;-60
2022/01/22 00:45:32;;;;;;;15.63;7.85;;;3.50;99.90;;;;;;5092688;28;20438;-61
2022/01/22 00:47:58;;;;;;;16.20;8.00;;;3.50;99.90;;;;;;5092087;28;21005;-61
2022/01/22 00:50:24;;;;;;;18.85;8.20;;;3.60;99.90;;;;;;5093265;28;20474;-60
2022/01/22 00:52:51;;;;;;;17.33;8.65;;;3.60;99.90;;;;;;5091591;28;20417;-61
2022/01/22 00:55:18;;;;;;;19.37;8.33;;;3.50;99.90;;;;;;5092670;28;20390;-60
2022/01/22 00:57:44;;;;;;;18.98;8.57;;;3.60;99.90;;;;;;5091469;28;20374;-60
2022/01/22 01:00:12;;;;;;;18.92;8.18;;;4.30;99.90;;;;;;5092533;28;20389;-60
2022/01/22 01:02:38;;;;;;;19.65;8.68;;;3.40;99.90;;;;;;5092063;28;20388;-61
2022/01/22 01:05:06;;;;;;;22.00;8.88;;;3.40;99.90;;;;;;5091684;28;20460;-60
2022/01/22 01:07:31;;;;;;;19.45;8.25;;;2.90;99.90;;;;;;5091983;28;20743;-60
2022/01/22 01:09:58;;;;;;;18.63;8.50;;;3.50;99.90;;;;;;5091221;28;20371;-60
2022/01/22 01:12:24;;;;;;;19.65;8.80;;;3.50;99.90;;;;;;5092086;28;20420;-60
2022/01/22 01:15:10;;;;;;;20.05;9.63;;;3.50;99.90;;;;;;5091173;28;20431;-60
2022/01/22 01:17:46;;;;;;;19.13;8.23;;;3.60;99.90;;;;;;5091547;28;20414;-61
2022/01/22 01:34:22;;;;;;;20.52;8.73;;;3.50;99.90;;;;;;5090940;28;20431;-61
2022/01/22 01:36:45;;;;;;;19.08;8.90;;;3.80;99.90;;;;;;5090743;28;20489;-61
2022/01/22 01:39:16;;;;;;;19.67;8.80;;;3.60;99.90;;;;;;5091579;28;20871;-61
2022/01/22 01:44:20;;;;;;;19.23;9.67;;;3.60;99.90;;;;;;5091885;28;20371;-61
2022/01/22 01:46:49;;;;;;;17.13;7.80;;;3.50;99.90;;;;;;5090688;28;20390;-61
2022/01/22 01:49:16;;;;;;;18.08;9.50;;;4.70;99.90;;;;;;5091634;28;20459;-61
2022/01/22 01:51:42;;;;;;;21.30;9.50;;;3.40;99.90;;;;;;5090690;28;20390;-62
2022/01/22 01:59:40;;;;;;;18.48;8.88;;;3.40;99.90;;;;;;5091052;28;20424;-62
2022/01/22 02:02:06;;;;;;;20.67;9.52;;;3.50;99.90;;;;;;5091270;28;20489;-61
2022/01/22 02:04:33;;;;;;;20.60;9.47;;;3.90;99.90;;;;;;5090975;28;20456;-61
2022/01/22 02:06:58;;;;;;;17.27;9.30;;;3.40;99.90;;;;;;5089203;28;20405;-61
2022/01/22 02:09:24;;;;;;;24.35;9.30;;;3.40;99.90;;;;;;5091319;28;20370;-61
2022/01/22 02:11:59;;;;;;;20.80;9.73;;;3.90;99.90;;;;;;5090402;28;20378;-61
2022/01/22 02:25:26;;;;;;;18.90;9.52;;;4.30;99.90;;;;;;5090853;28;20409;-61
2022/01/22 02:27:52;;;;;;;23.85;11.00;;;4.80;99.90;;;;;;5090047;28;20393;-61
2022/01/22 02:30:21;;;;;;;20.33;10.13;;;3.30;99.90;;;;;;5090116;28;20731;-61
2022/01/22 02:35:42;;;;;;;21.98;10.40;;;3.20;99.90;;;;;;5090600;28;20886;-61
2022/01/22 02:38:15;;;;;;;21.95;11.50;;;3.20;99.90;;;;;;5090604;28;20428;-61
2022/01/22 02:40:47;;;;;;;24.60;11.30;;;3.20;99.90;;;;;;5090309;28;20376;-62
2022/01/22 02:43:13;;;;;;;24.30;11.00;;;3.10;99.90;;;;;;5090783;28;20401;-61
2022/01/22 02:45:41;;;;;;;23.60;11.50;;;3.40;99.90;;;;;;5090667;28;20515;-62
2022/01/22 02:48:07;;;;;;;26.00;12.20;;;3.20;99.90;;;;;;5088992;28;20394;-61
2022/01/22 02:50:33;;;;;;;20.23;10.60;;;3.30;99.90;;;;;;5090406;28;20389;-61
2022/01/22 02:53:04;;;;;;;21.92;11.75;;;3.30;99.90;;;;;;5089871;28;20374;-62
2022/01/22 02:55:30;;;;;;;25.08;11.60;;;3.70;99.90;;;;;;5090366;28;20453;-61
2022/01/22 02:57:56;;;;;;;24.87;11.67;;;3.30;99.90;;;;;;5089620;28;20382;-62
2022/01/22 03:00:23;;;;;;;25.97;11.23;;;3.30;99.90;;;;;;5090387;28;20381;-61
2022/01/22 03:02:50;;;;;;;23.38;11.10;;;3.90;99.90;;;;;;5089880;28;20852;-61
2022/01/22 03:05:16;;;;;;;22.77;11.70;;;3.30;99.90;;;;;;5088997;28;20421;-61
2022/01/22 03:07:44;;;;;;;22.52;10.45;;;4.50;99.90;;;;;;5090075;28;20393;-61
2022/01/22 03:10:12;;;;;;;25.80;11.35;;;3.70;99.90;;;;;;5090403;28;20378;-61
2022/01/22 03:18:07;;;;;;;24.88;12.80;;;3.20;99.90;;;;;;5089607;28;20449;-61
2022/01/22 03:23:12;;;;;;;23.25;11.32;;;3.20;99.90;;;;;;5089438;28;20370;-61
2022/01/22 03:28:27;;;;;;;26.37;11.97;;;3.30;99.90;;;;;;5090108;28;20381;-61
2022/01/22 03:30:53;;;;;;;21.98;11.13;;;4.60;99.90;;;;;;5089249;28;20381;-61
2022/01/22 03:33:21;;;;;;;25.43;11.03;;;3.20;99.90;;;;;;5089982;28;20376;-61
2022/01/22 03:35:54;;;;;;;27.08;11.95;;;3.30;99.90;;;;;;5089168;28;20382;-61
2022/01/22 03:38:20;;;;;;;24.02;12.18;;;3.30;99.90;;;;;;5089747;28;20374;-61
2022/01/22 03:40:49;;;;;;;23.27;11.30;;;3.20;99.90;;;;;;5089005;28;20374;-61
2022/01/22 03:43:16;;;;;;;23.90;12.05;;;3.20;99.90;;;;;;5089736;28;20508;-61
2022/01/22 03:45:41;;;;;;;27.33;11.65;;;3.20;99.90;;;;;;5088964;28;20417;-62
2022/01/22 03:48:07;;;;;;;25.95;12.45;;;3.20;99.90;;;;;;5088860;28;20387;-61
2022/01/22 03:50:33;;;;;;;23.47;11.60;;;3.10;99.90;;;;;;5089714;28;20516;-61
2022/01/22 03:52:58;;;;;;;26.63;12.03;;;3.10;99.90;;;;;;5087530;28;20370;-61
2022/01/22 03:58:08;;;;;;;24.70;11.10;;;3.10;99.90;;;;;;5089100;28;20377;-61
2022/01/22 04:00:34;;;;;;;22.30;11.73;;;3.10;99.90;;;;;;5089376;28;20378;-61
2022/01/22 04:03:28;;;;;;;24.23;11.52;;;3.10;99.90;;;;;;5088819;28;20973;-61
2022/01/22 04:06:26;;;;;;;22.90;11.73;;;3.10;99.90;;;;;;5088734;28;20479;-62
2022/01/22 04:08:50;;;;;;;24.15;11.20;;;3.20;99.90;;;;;;5088450;28;20394;-61
2022/01/22 04:11:16;;;;;;;26.25;12.13;;;3.20;99.90;;;;;;5089402;28;20404;-61
2022/01/22 04:13:43;;;;;;;25.90;13.00;;;4.80;99.90;;;;;;5089275;28;20863;-62
2022/01/22 04:16:12;;;;;;;26.02;12.98;;;3.30;99.90;;;;;;5088774;28;20472;-61
2022/01/22 04:29:20;;;;;;;27.38;12.73;;;3.10;99.90;;;;;;5089320;28;20883;-61
2022/01/22 04:31:46;;;;;;;26.35;13.70;;;3.20;99.90;;;;;;5088671;28;20377;-62
2022/01/22 04:34:11;;;;;;;26.58;12.55;;;3.40;99.90;;;;;;5088694;28;20386;-61
2022/01/22 04:36:37;;;;;;;28.10;12.40;;;3.20;99.90;;;;;;5088794;28;20383;-61
2022/01/22 04:39:03;;;;;;;30.70;12.87;;;3.30;99.90;;;;;;5088443;28;20470;-61
2022/01/22 04:41:29;;;;;;;24.13;12.00;;;3.30;99.90;;;;;;5089016;28;20379;-61
2022/01/22 04:43:59;;;;;;;25.55;12.52;;;3.20;99.90;;;;;;5088248;28;20889;-61
2022/01/22 04:46:47;;;;;;;23.80;12.13;;;3.20;99.90;;;;;;5089606;28;20529;-62
2022/01/22 04:57:09;;;;;;;27.27;12.25;;;3.60;99.90;;;;;;5093131;28;20443;-61
2022/01/22 04:59:35;;;;;;;26.75;13.10;;;3.30;99.90;;;;;;5093288;28;20382;-61
2022/01/22 05:02:01;;;;;;;24.88;13.15;;;3.30;99.90;;;;;;5092641;28;20526;-61
2022/01/22 05:04:27;;;;;;;24.15;12.32;;;3.30;99.90;;;;;;5093366;28;20404;-61
2022/01/22 05:06:53;;;;;;;24.97;12.00;;;3.30;99.90;;;;;;5091890;28;20378;-61
2022/01/22 05:09:18;;;;;;;27.60;12.10;;;3.20;99.90;;;;;;5092288;28;20397;-61
2022/01/22 05:11:44;;;;;;;25.87;11.83;;;3.30;99.90;;;;;;5092498;28;20374;-62
2022/01/22 05:14:10;;;;;;;23.05;12.27;;;3.30;99.90;;;;;;5091793;28;20405;-61
2022/01/22 05:16:35;;;;;;;23.92;11.40;;;3.20;99.90;;;;;;5092305;28;20409;-61
2022/01/22 05:19:04;;;;;;;24.47;11.83;;;4.80;99.90;;;;;;5091656;28;20482;-61
2022/01/22 05:21:33;;;;;;;23.85;12.13;;;3.30;99.90;;;;;;5092275;28;20489;-61
2022/01/22 05:24:03;;;;;;;22.93;11.53;;;3.30;99.90;;;;;;5091444;28;20419;-61
2022/01/22 05:26:56;;;;;;;23.48;12.32;;;3.40;99.90;;;;;;5092268;28;20402;-61
2022/01/22 05:32:15;;;;;;;23.80;12.40;;;3.30;99.90;;;;;;5091475;28;20481;-61
2022/01/22 05:37:13;;;;;;;25.55;11.73;;;3.40;99.90;;;;;;5090466;28;20757;-61
2022/01/22 05:39:39;;;;;;;23.50;12.55;;;3.50;99.90;;;;;;5088549;28;20386;-61
2022/01/22 05:42:09;;;;;;;22.90;11.50;;;5.10;99.90;;;;;;5090393;28;20400;-61
2022/01/22 05:44:36;;;;;;;27.08;11.93;;;3.40;99.90;;;;;;5091208;28;20455;-61
2022/01/22 05:47:05;;;;;;;22.92;11.80;;;3.30;99.90;;;;;;5090044;28;20887;-61
2022/01/22 05:49:34;;;;;;;22.27;11.70;;;3.40;99.90;;;;;;5091231;28;20378;-61
2022/01/22 05:52:03;;;;;;;27.73;13.80;;;5.10;99.90;;;;;;5090385;28;20382;-61
2022/01/22 05:59:43;;;;;;;23.98;11.45;;;3.50;99.90;;;;;;5090459;28;20469;-61
2022/01/22 06:02:15;;;;;;;25.50;12.07;;;3.40;99.90;;;;;;5090309;28;20381;-61
2022/01/22 06:04:42;;;;;;;29.20;12.57;;;3.40;99.90;;;;;;5089561;28;20443;-61
2022/01/22 06:07:09;;;;;;;27.27;12.10;;;3.40;99.90;;;;;;5087684;28;20522;-61
2022/01/22 06:09:38;;;;;;;26.67;12.82;;;3.40;99.90;;;;;;5090679;28;20477;-61
2022/01/22 06:14:34;;;;;;;32.53;15.57;;;3.40;99.90;;;;;;5091046;28;20465;-61
2022/01/22 06:17:00;;;;;;;28.75;12.07;;;3.40;99.90;;;;;;5089595;28;20513;-62
2022/01/22 06:19:25;;;;;;;23.15;10.80;;;3.40;99.90;;;;;;5090934;28;20374;-61
2022/01/22 06:21:51;;;;;;;27.08;13.35;;;3.40;99.90;;;;;;5089965;28;21184;-62
2022/01/22 06:24:21;;;;;;;25.00;12.00;;;3.40;99.90;;;;;;5090783;28;20386;-62
2022/01/22 06:26:47;;;;;;;23.58;11.80;;;3.50;99.90;;;;;;5090674;28;20390;-62
2022/01/22 06:29:14;;;;;;;25.58;12.60;;;3.40;99.90;;;;;;5088569;28;20810;-61
2022/01/22 06:31:40;;;;;;;25.85;11.60;;;3.40;99.90;;;;;;5090681;28;20366;-62
2022/01/22 06:34:06;;;;;;;25.73;12.32;;;3.50;99.90;;;;;;5088580;28;20490;-61
2022/01/22 06:36:33;;;;;;;23.70;12.20;;;4.70;99.90;;;;;;5086826;28;20867;-61
2022/01/22 06:39:11;;;;;;;23.83;12.85;;;4.40;99.90;;;;;;5074718;28;20465;-62
2022/01/22 06:41:44;;;;;;;24.67;11.43;;;5.00;99.90;;;;;;5068679;28;20919;-62
2022/01/22 06:44:22;;;;;;;27.65;12.70;;;3.50;99.90;;;;;;5068994;28;20380;-62
2022/01/22 06:46:51;;;;;;;20.75;11.25;;;3.60;99.90;;;;;;5074274;28;20842;-62
2022/01/22 06:49:16;;;;;;;23.20;10.85;;;3.60;99.90;;;;;;5073106;28;20384;-62
2022/01/22 06:51:43;;;;;;;22.50;11.07;;;4.70;99.90;;;;;;5081727;28;20475;-62
2022/01/22 06:54:10;;;;;;;25.83;11.90;;;5.40;99.90;;;;;;5075664;28;20412;-61
2022/01/22 06:56:37;;;;;;;23.13;10.80;;;5.10;99.90;;;;;;5085101;28;20402;-62
2022/01/22 06:59:06;;;;;;;22.63;11.27;;;3.60;99.90;;;;;;5086821;28;20426;-62
2022/01/22 07:01:32;;;;;;;21.00;10.82;;;3.60;99.90;;;;;;5087465;28;20390;-61
2022/01/22 07:03:58;;;;;;;21.40;10.55;;;3.70;99.90;;;;;;5080027;28;20946;-62
2022/01/22 07:06:24;;;;;;;25.23;11.23;;;4.60;99.90;;;;;;5079915;28;20422;-62
2022/01/22 07:08:49;;;;;;;20.17;9.75;;;3.80;99.90;;;;;;5081611;28;20473;-62
2022/01/22 07:11:16;;;;;;;23.07;11.00;;;4.10;99.90;;;;;;5084544;28;20480;-62
2022/01/22 07:13:42;;;;;;;22.85;10.27;;;3.70;99.90;;;;;;5085243;28;20390;-62
2022/01/22 07:16:07;;;;;;;21.80;10.35;;;3.70;99.90;;;;;;5086014;28;20910;-61
2022/01/22 07:18:34;;;;;;;22.03;10.20;;;5.30;99.90;;;;;;5086079;28;20386;-62
2022/01/22 07:21:08;;;;;;;21.30;10.43;;;4.70;99.90;;;;;;5087980;28;20386;-62
2022/01/22 07:26:00;;;;;;;23.00;10.20;;;3.80;99.90;;;;;;5084690;28;20421;-62
2022/01/22 07:28:25;;;;;;;19.60;10.40;;;3.80;99.90;;;;;;5087679;28;20455;-62
2022/01/22 07:30:52;;;;;;;21.70;10.93;;;3.80;99.90;;;;;;5087444;28;20400;-62
2022/01/22 07:33:20;;;;;;;22.85;10.10;;;3.80;99.90;;;;;;5079897;28;20757;-62
2022/01/22 07:35:45;;;;;;;22.65;10.82;;;4.60;99.90;;;;;;5080158;28;20414;-62
2022/01/22 07:38:11;;;;;;;21.30;10.15;;;4.00;99.90;;;;;;5079506;28;20403;-62
2022/01/22 07:40:37;;;;;;;20.98;10.43;;;3.90;99.90;;;;;;5074140;28;20392;-62
2022/01/22 07:43:03;;;;;;;19.25;10.57;;;3.90;99.90;;;;;;5076348;28;20861;-62
2022/01/22 07:45:29;;;;;;;19.00;9.38;;;5.40;99.90;;;;;;5072405;28;20415;-60
2022/01/22 07:47:55;;;;;;;21.38;10.95;;;4.00;99.90;;;;;;5070772;28;20405;-61
2022/01/22 07:50:21;;;;;;;19.00;9.80;;;4.90;99.90;;;;;;5085567;28;20860;-61
2022/01/22 07:52:58;;;;;;;24.87;11.47;;;4.10;99.90;;;;;;5078497;28;20461;-61
2022/01/22 07:55:30;;;;;;;25.98;11.40;;;4.10;99.90;;;;;;5074094;28;20395;-62
2022/01/22 07:57:56;;;;;;;21.58;10.50;;;4.20;99.90;;;;;;5080739;28;20880;-62
2022/01/22 08:00:23;;;;;;;20.08;10.63;;;4.10;99.90;;;;;;5077947;28;20390;-62
2022/01/22 08:02:48;;;;;;;22.90;10.70;;;4.00;99.90;;;;;;5075255;28;20407;-61
2022/01/22 08:05:14;;;;;;;21.38;10.73;;;4.00;99.90;;;;;;5087515;28;20442;-61
2022/01/22 08:07:44;;;;;;;21.05;10.63;;;4.00;99.90;;;;;;5094840;28;20797;-62
2022/01/22 08:10:12;;;;;;;20.97;10.10;;;5.40;99.90;;;;;;5089668;28;20374;-61
2022/01/22 08:12:38;;;;;;;22.63;10.05;;;3.90;99.90;;;;;;5077448;28;20725;-61
2022/01/22 08:15:09;;;;;;;20.95;10.43;;;3.90;99.90;;;;;;5086352;28;20427;-61
2022/01/22 08:17:35;;;;;;;20.40;10.60;;;3.90;99.90;;;;;;5078132;28;20491;-61
2022/01/22 08:20:01;;;;;;;19.10;10.80;;;3.80;99.90;;;;;;5089318;28;20432;-61
2022/01/22 08:22:27;;;;;;;21.13;10.40;;;3.90;99.90;;;;;;5093823;28;20377;-61
2022/01/22 08:24:58;;;;;;;22.67;10.70;;;3.90;99.90;;;;;;5074006;28;20409;-62
2022/01/22 08:27:40;;;;;;;20.00;11.53;;;5.20;99.90;;;;;;5087314;28;20934;-61
2022/01/22 08:30:08;;;;;;;21.45;10.57;;;4.00;99.90;;;;;;5087218;28;20839;-61
2022/01/22 08:37:43;;;;;;;23.13;11.03;;;3.90;99.90;;;;;;5081227;28;20769;-62
2022/01/22 08:40:10;;;;;;;22.43;10.47;;;3.90;99.90;;;;;;5094512;28;20380;-61
2022/01/22 08:42:36;;;;;;;20.10;10.75;;;4.10;99.90;;;;;;5088359;28;20396;-61
2022/01/22 08:45:03;;;;;;;22.73;10.23;;;4.10;99.90;;;;;;5094534;28;20418;-61
2022/01/22 08:47:29;;;;;;;25.42;11.00;;;4.00;99.90;;;;;;5095417;28;20543;-61
2022/01/22 08:49:55;;;;;;;21.55;10.30;;;4.40;99.90;;;;;;5099773;28;20922;-61
2022/01/22 08:52:25;;;;;;;23.30;11.60;;;4.00;99.90;;;;;;5092135;28;20830;-61
2022/01/22 08:54:50;;;;;;;22.53;10.70;;;5.40;99.90;;;;;;5092054;28;20467;-61
2022/01/22 08:57:18;;;;;;;22.43;10.73;;;4.20;99.90;;;;;;5092380;28;20405;-61
2022/01/22 08:59:44;;;;;;;20.97;11.07;;;4.10;99.90;;;;;;5092414;28;20441;-61
2022/01/22 09:02:10;;;;;;;24.70;11.60;;;4.00;99.90;;;;;;5091345;28;20374;-61
2022/01/22 09:04:36;;;;;;;19.05;10.02;;;4.20;99.90;;;;;;5092096;28;20851;-61
2022/01/22 09:07:03;;;;;;;24.95;10.82;;;4.00;99.90;;;;;;5091135;28;20382;-61
2022/01/22 09:09:29;;;;;;;22.55;10.43;;;4.10;99.90;;;;;;5092741;28;20386;-61
2022/01/22 09:11:54;;;;;;;21.10;10.30;;;4.30;99.90;;;;;;5090883;28;20397;-61
2022/01/22 09:14:21;;;;;;;25.65;11.38;;;4.00;99.90;;;;;;5091898;28;20874;-61
2022/01/22 09:16:48;;;;;;;20.33;11.07;;;4.10;99.90;;;;;;5091773;28;20424;-61
2022/01/22 09:19:14;;;;;;;24.45;11.38;;;4.30;99.90;;;;;;5091604;28;20461;-61
2022/01/22 09:21:45;;;;;;;21.60;11.20;;;4.20;99.90;;;;;;5091938;28;20400;-61
2022/01/22 09:24:12;;;;;;;25.52;11.77;;;4.30;99.90;;;;;;5091156;28;20378;-61
2022/01/22 09:26:38;;;;;;;23.00;11.43;;;4.20;99.90;;;;;;5091484;28;20891;-61
2022/01/22 09:29:05;;;;;;;25.05;11.80;;;4.10;99.90;;;;;;5091010;28;20394;-61
2022/01/22 09:31:31;;;;;;;23.92;11.60;;;4.20;99.90;;;;;;5091643;28;20386;-61
2022/01/22 09:33:59;;;;;;;26.90;11.70;;;4.10;99.90;;;;;;5091187;28;20425;-61
2022/01/22 09:36:26;;;;;;;23.50;11.25;;;4.70;99.90;;;;;;5091594;28;20394;-61
2022/01/22 09:38:53;;;;;;;20.23;11.27;;;4.20;99.90;;;;;;5091091;28;20457;-62
2022/01/22 09:41:20;;;;;;;21.45;10.65;;;4.20;99.90;;;;;;5077996;28;20438;-61
2022/01/22 09:43:46;;;;;;;25.70;11.70;;;4.30;99.90;;;;;;5089969;28;20936;-61
2022/01/22 09:46:12;;;;;;;20.90;10.80;;;4.30;99.90;;;;;;5090738;28;20425;-61
2022/01/22 09:48:45;;;;;;;24.80;13.00;;;4.30;99.90;;;;;;5090081;28;20484;-61
2022/01/22 09:51:12;;;;;;;23.23;11.60;;;4.30;99.90;;;;;;5090891;28;20473;-61
2022/01/22 09:53:43;;;;;;;19.92;10.40;;;4.20;99.90;;;;;;5091069;28;20973;-61
2022/01/22 09:56:09;;;;;;;22.83;11.47;;;4.30;99.90;;;;;;5090718;28;20394;-61
2022/01/22 09:58:35;;;;;;;24.30;11.02;;;4.50;99.90;;;;;;5091280;28;20386;-61
2022/01/22 10:01:20;;;;;;;22.20;10.70;;;4.40;99.90;;;;;;5090481;28;20855;-61
2022/01/22 10:03:46;;;;;;;19.90;10.50;;;4.40;99.90;;;;;;5090996;28;20374;-61
2022/01/22 10:06:21;;;;;;;28.10;12.10;;;4.40;99.90;;;;;;5090415;28;20539;-61
2022/01/22 10:08:51;;;;;;;21.53;10.60;;;4.50;99.90;;;;;;5091078;28;20378;-61
2022/01/22 10:11:19;;;;;;;22.40;11.30;;;4.60;99.90;;;;;;5089464;28;20394;-61
2022/01/22 10:13:51;;;;;;;18.88;10.10;;;4.70;99.90;;;;;;5091030;28;20408;-61
2022/01/22 10:16:23;;;;;;;22.55;10.77;;;4.70;99.90;;;;;;5090159;28;20441;-61
2022/01/22 10:19:10;;;;;;;20.55;10.35;;;4.50;99.90;;;;;;5089655;28;20482;-61
2022/01/22 10:21:39;;;;;;;19.85;9.98;;;5.90;99.90;;;;;;5090809;28;20432;-61
2022/01/22 10:24:39;;;;;;;17.45;9.73;;;4.50;99.90;;;;;;5090027;28;20763;-61
2022/01/22 10:27:33;;;;;;;21.90;10.05;;;4.60;99.90;;;;;;5089758;28;20467;-61
2022/01/22 10:30:18;;;;;;;18.73;9.60;;;4.70;99.90;;;;;;5090219;28;20394;-61
2022/01/22 10:32:50;;;;;;;19.60;10.30;;;4.70;99.90;;;;;;5086085;28;20390;-61
2022/01/22 10:35:25;;;;;;;20.33;9.52;;;4.70;99.90;;;;;;5077371;28;20384;-61
2022/01/22 10:37:55;;;;;;;19.13;9.23;;;4.70;99.90;;;;;;5085840;28;20468;-60
2022/01/22 10:40:28;;;;;;;20.83;9.50;;;4.70;99.90;;;;;;5084639;28;20457;-61
2022/01/22 10:43:25;;;;;;;19.10;9.10;;;4.70;99.90;;;;;;5076217;28;20402;-61
2022/01/22 10:46:00;;;;;;;20.25;10.32;;;4.60;99.90;;;;;;5084689;28;20438;-61
2022/01/22 10:48:27;;;;;;;19.50;10.20;;;4.60;99.90;;;;;;5086654;28;20426;-61
2022/01/22 10:51:14;;;;;;;20.42;10.60;;;4.70;99.90;;;;;;5077336;28;20402;-61
2022/01/22 10:53:52;;;;;;;23.15;9.20;;;4.60;99.90;;;;;;5083321;28;20457;-60
2022/01/22 10:56:22;;;;;;;19.00;9.10;;;4.60;99.90;;;;;;5088018;28;20494;-61
2022/01/22 10:58:54;;;;;;;17.95;9.20;;;4.70;99.90;;;;;;5074731;28;20459;-61
2022/01/22 11:01:22;;;;;;;17.47;9.33;;;4.50;99.90;;;;;;5084445;28;20461;-61
2022/01/22 11:04:00;;;;;;;18.30;9.15;;;4.50;99.90;;;;;;5085729;28;20814;-61
2022/01/22 11:06:29;;;;;;;21.08;9.73;;;4.50;99.90;;;;;;5087691;28;20489;-61
2022/01/22 11:08:55;;;;;;;18.50;9.38;;;4.50;99.90;;;;;;5086038;28;20394;-61
2022/01/22 11:11:23;;;;;;;19.75;8.68;;;4.60;99.90;;;;;;5083162;28;20435;-61
2022/01/22 11:13:50;;;;;;;20.13;9.20;;;4.70;99.90;;;;;;5084390;28;20382;-61
2022/01/22 11:16:17;;;;;;;17.23;8.20;;;4.80;99.90;;;;;;5082254;28;20413;-61
2022/01/22 11:18:49;;;;;;;15.95;8.23;;;4.70;99.90;;;;;;5082952;28;20381;-61
2022/01/22 11:21:16;;;;;;;17.50;7.63;;;4.70;99.90;;;;;;5088305;28;20405;-61
2022/01/22 11:23:43;;;;;;;20.48;9.55;;;4.50;99.90;;;;;;5094875;28;20477;-62
2022/01/22 11:26:09;;;;;;;20.30;8.30;;;5.60;99.90;;;;;;5086720;28;20499;-61
2022/01/22 11:28:38;;;;;;;15.95;8.43;;;4.80;99.90;;;;;;5088287;28;20381;-62
2022/01/22 11:31:05;;;;;;;18.02;9.18;;;6.10;99.90;;;;;;5068786;28;20884;-62
2022/01/22 11:33:33;;;;;;;17.90;8.50;;;4.90;99.90;;;;;;5069536;28;20384;-62
2022/01/22 11:36:09;;;;;;;14.40;8.18;;;5.00;99.90;;;;;;5068193;28;20384;-61
2022/01/22 11:38:39;;;;;;;18.85;8.65;;;4.90;99.90;;;;;;5074880;28;20386;-62
2022/01/22 11:41:15;;;;;;;17.35;8.68;;;5.00;99.90;;;;;;5087937;28;20399;-61
2022/01/22 11:44:10;;;;;;;15.50;8.18;;;5.00;99.90;;;;;;5087796;28;20492;-61
2022/01/22 11:46:43;;;;;;;15.95;8.13;;;5.00;99.90;;;;;;5086020;28;20437;-61
2022/01/22 11:49:11;;;;;;;18.35;8.93;;;4.80;99.90;;;;;;5088950;28;20386;-62
2022/01/22 11:51:38;;;;;;;17.95;8.43;;;4.80;99.90;;;;;;5089245;28;20378;-61
2022/01/22 11:54:05;;;;;;;18.63;9.85;;;4.70;99.90;;;;;;5089150;28;20397;-62
2022/01/22 11:56:40;;;;;;;22.27;10.30;;;4.80;99.90;;;;;;5089280;28;20760;-62
2022/01/22 11:59:20;;;;;;;19.15;8.60;;;4.90;99.90;;;;;;5088738;28;20370;-61
2022/01/22 12:01:52;;;;;;;18.50;9.50;;;4.80;99.90;;;;;;5088541;28;20382;-61
2022/01/22 12:04:24;;;;;;;25.13;10.95;;;5.30;99.90;;;;;;5089112;28;20466;-61
2022/01/22 12:07:02;;;;;;;17.17;8.85;;;4.90;99.90;;;;;;5089477;28;20409;-61
2022/01/22 12:15:32;;;;;;;18.73;9.60;;;5.30;99.90;;;;;;5088490;28;20421;-61
2022/01/22 12:18:11;;;;;;;17.52;9.52;;;5.30;99.90;;;;;;5089111;28;20398;-61
2022/01/22 12:21:31;;;;;;;19.90;9.90;;;5.40;99.90;;;;;;5089494;28;20439;-61
2022/01/22 12:23:32;;;;;;;17.30;10.15;;;5.30;99.90;;;;;;5068532;28;20395;-61
2022/01/22 12:25:59;;;;;;;15.80;9.40;;;5.40;99.90;;;;;;5072844;28;20882;-61
2022/01/22 12:28:39;;;;;;;16.20;9.17;;;5.30;99.90;;;;;;5088615;28;20932;-62
2022/01/22 12:31:07;;;;;;;18.70;9.18;;;5.40;99.90;;;;;;5087207;28;20709;-61
2022/01/22 12:33:32;;;;;;;16.40;8.27;;;5.60;99.90;;;;;;5088959;28;20374;-62
2022/01/22 12:35:59;;;;;;;18.10;8.40;;;5.60;99.90;;;;;;5088169;28;20938;-62
2022/01/22 12:38:43;;;;;;;19.20;8.90;;;5.60;99.90;;;;;;5088997;28;20393;-62
2022/01/22 12:44:45;;;;;;;19.35;9.10;;;5.40;99.90;;;;;;5088183;28;20390;-61
2022/01/22 12:47:11;;;;;;;19.05;9.20;;;5.30;99.90;;;;;;5087930;28;20406;-61
2022/01/22 12:49:37;;;;;;;19.27;9.13;;;5.30;99.90;;;;;;5088707;28;20366;-60
2022/01/22 12:52:06;;;;;;;18.70;9.10;;;5.30;99.90;;;;;;5088146;28;20397;-61
2022/01/22 12:54:44;;;;;;;19.20;9.55;;;5.30;99.90;;;;;;5088932;28;20386;-60
2022/01/22 12:57:13;;;;;;;19.67;9.10;;;5.20;99.90;;;;;;5088633;28;20401;-60
2022/01/22 13:00:08;;;;;;;15.02;8.80;;;5.20;99.90;;;;;;5088817;28;20374;-60
2022/01/22 13:02:44;;;;;;;21.93;9.97;;;5.20;99.90;;;;;;5088865;28;20932;-61
2022/01/22 13:05:12;;;;;;;17.88;9.52;;;5.20;99.90;;;;;;5087418;28;20398;-60
2022/01/22 13:07:39;;;;;;;19.42;9.38;;;5.30;99.90;;;;;;5088620;28;20378;-61
2022/01/22 13:10:07;;;;;;;21.95;9.75;;;5.20;99.90;;;;;;5087249;28;20387;-61
2022/01/22 13:12:34;;;;;;;22.20;10.32;;;5.20;99.90;;;;;;5088280;28;20951;-61
2022/01/22 13:15:01;;;;;;;19.33;9.90;;;5.10;99.90;;;;;;5091006;28;20778;-61
2022/01/22 13:17:31;;;;;;;17.25;10.05;;;5.10;99.90;;;;;;5092110;28;20433;-61
2022/01/22 13:19:59;;;;;;;21.50;9.60;;;5.20;99.90;;;;;;5091370;28;20370;-61
2022/01/22 13:22:38;;;;;;;20.67;9.98;;;5.40;99.90;;;;;;5091114;28;20378;-61
2022/01/22 13:25:07;;;;;;;21.95;10.32;;;6.40;99.90;;;;;;5091014;28;20420;-61
2022/01/22 13:27:34;;;;;;;19.90;9.65;;;5.60;99.90;;;;;;5092073;28;20393;-61
2022/01/22 13:29:59;;;;;;;20.98;10.38;;;5.50;99.90;;;;;;5090821;28;20412;-61
2022/01/22 13:35:11;;;;;;;20.55;9.98;;;5.40;99.90;;;;;;5092843;28;20483;-61
2022/01/22 13:38:27;;;;;;;20.75;11.13;;;5.20;99.90;;;;;;5089782;28;20378;-61
2022/01/22 13:49:19;;;;;;;22.75;12.10;;;5.50;99.90;;;;;;5083723;28;20418;-61
2022/01/22 13:51:45;;;;;;;22.23;11.10;;;5.60;99.90;;;;;;5091477;28;20461;-61
2022/01/22 13:54:12;;;;;;;21.95;10.55;;;5.50;99.90;;;;;;5090432;28;20370;-61
2022/01/22 13:56:55;;;;;;;20.20;10.55;;;5.40;99.90;;;;;;5091269;28;20850;-61
2022/01/22 13:59:30;;;;;;;23.40;11.40;;;5.30;99.90;;;;;;5091050;28;20468;-63
2022/01/22 14:05:08;;;;;;;21.05;10.02;;;5.10;99.90;;;;;;5083297;28;20413;-61
2022/01/22 14:07:37;;;;;;;20.10;10.93;;;5.20;99.90;;;;;;5091276;28;20826;-62
2022/01/22 14:10:08;;;;;;;20.27;10.60;;;5.20;99.90;;;;;;5090294;28;20406;-64
2022/01/22 14:12:41;;;;;;;22.50;11.83;;;5.20;99.90;;;;;;5071511;28;20387;-63
2022/01/22 14:15:15;;;;;;;26.77;12.32;;;5.10;99.90;;;;;;5088214;28;20390;-63
2022/01/22 14:17:53;;;;;;;24.13;11.85;;;5.20;99.90;;;;;;5091059;28;20437;-62
2022/01/22 14:20:27;;;;;;;21.45;11.30;;;5.10;99.90;;;;;;5090071;28;20728;-63
2022/01/22 14:23:06;;;;;;;22.83;11.30;;;5.10;99.90;;;;;;5091214;28;20848;-63
2022/01/22 14:25:35;;;;;;;22.33;11.77;;;5.10;99.90;;;;;;5090068;28;20397;-61
2022/01/22 14:28:10;;;;;;;25.90;13.18;;;5.10;99.90;;;;;;5090116;28;20481;-62
2022/01/22 14:30:40;;;;;;;26.48;13.30;;;5.20;99.90;;;;;;5091270;28;20381;-63
2022/01/22 14:33:07;;;;;;;25.43;11.43;;;5.20;99.90;;;;;;5090273;28;20473;-63
2022/01/22 14:35:34;;;;;;;24.77;11.90;;;5.00;99.90;;;;;;5111196;28;20377;-63
2022/01/22 14:38:19;;;;;;;26.48;12.77;;;5.20;99.90;;;;;;5111188;28;20837;-63
2022/01/22 14:44:24;;;;;;;25.90;13.18;;;4.90;99.90;;;;;;5111780;28;20845;-62
2022/01/22 14:46:52;;;;;;;28.85;13.00;;;4.80;99.90;;;;;;5110226;28;20585;-62
2022/01/22 14:49:20;;;;;;;23.27;12.32;;;4.70;99.90;;;;;;5110888;28;20411;-62
2022/01/22 14:51:46;;;;;;;25.33;11.98;;;4.60;99.90;;;;;;5111927;28;20425;-62